sensor_id;sensor_type;location;lat;lon;timestamp;temperature;humidity
67502;SHT30;54349;52.528;19.760;2022-08-19T00:00:10;23.09;61.53
67502;SHT30;54349;52.528;19.760;2022-08-19T00:03:02;22.97;61.37
67502;SHT30;54349;52.528;19.760;2022-08-19T00:05:32;22.88;61.16
67502;SHT30;54349;52.528;19.760;2022-08-19T00:08:00;22.77;61.14
67502;SHT30;54349;52.528;19.760;2022-08-19T00:10:29;22.67;61.97
67502;SHT30;54349;52.528;19.760;2022-08-19T00:12:58;22.76;64.63
67502;SHT30;54349;52.528;19.760;2022-08-19T00:15:26;22.98;64.63
67502;SHT30;54349;52.528;19.760;2022-08-19T00:17:55;23.22;64.43
67502;SHT30;54349;52.528;19.760;2022-08-19T00:20:23;23.43;64.24
67502;SHT30;54349;52.528;19.760;2022-08-19T00:22:51;23.57;63.48
67502;SHT30;54349;52.528;19.760;2022-08-19T00:25:20;23.55;62.57
67502;SHT30;54349;52.528;19.760;2022-08-19T00:27:57;23.45;62.18
67502;SHT30;54349;52.528;19.760;2022-08-19T00:30:26;23.33;61.56
67502;SHT30;54349;52.528;19.760;2022-08-19T00:32:56;23.19;61.32
67502;SHT30;54349;52.528;19.760;2022-08-19T00:35:25;23.11;61.16
67502;SHT30;54349;52.528;19.760;2022-08-19T00:37:55;23.00;60.93
67502;SHT30;54349;52.528;19.760;2022-08-19T00:40:23;22.88;61.00
67502;SHT30;54349;52.528;19.760;2022-08-19T00:42:53;22.80;62.79
67502;SHT30;54349;52.528;19.760;2022-08-19T00:45:23;22.96;64.61
67502;SHT30;54349;52.528;19.760;2022-08-19T00:47:54;23.15;64.49
67502;SHT30;54349;52.528;19.760;2022-08-19T00:50:22;23.34;64.42
67502;SHT30;54349;52.528;19.760;2022-08-19T00:52:51;23.51;64.25
67502;SHT30;54349;52.528;19.760;2022-08-19T00:55:22;23.57;63.09
67502;SHT30;54349;52.528;19.760;2022-08-19T00:57:57;23.47;62.49
67502;SHT30;54349;52.528;19.760;2022-08-19T01:00:31;23.31;62.12
67502;SHT30;54349;52.528;19.760;2022-08-19T01:03:01;23.14;61.66
67502;SHT30;54349;52.528;19.760;2022-08-19T01:05:33;23.02;61.54
67502;SHT30;54349;52.528;19.760;2022-08-19T01:08:04;22.92;61.34
67502;SHT30;54349;52.528;19.760;2022-08-19T01:10:42;22.88;63.46
67502;SHT30;54349;52.528;19.760;2022-08-19T01:13:17;23.04;64.60
67502;SHT30;54349;52.528;19.760;2022-08-19T01:15:50;23.24;64.60
67502;SHT30;54349;52.528;19.760;2022-08-19T01:18:23;23.46;64.46
67502;SHT30;54349;52.528;19.760;2022-08-19T01:20:58;23.56;63.27
67502;SHT30;54349;52.528;19.760;2022-08-19T01:23:34;23.46;62.17
67502;SHT30;54349;52.528;19.760;2022-08-19T01:26:16;23.31;62.01
67502;SHT30;54349;52.528;19.760;2022-08-19T01:28:48;23.21;61.62
67502;SHT30;54349;52.528;19.760;2022-08-19T01:31:26;23.14;61.38
67502;SHT30;54349;52.528;19.760;2022-08-19T01:34:00;23.17;63.63
67502;SHT30;54349;52.528;19.760;2022-08-19T01:36:32;23.33;64.09
67502;SHT30;54349;52.528;19.760;2022-08-19T01:39:07;23.52;63.99
67502;SHT30;54349;52.528;19.760;2022-08-19T01:41:39;23.68;63.89
67502;SHT30;54349;52.528;19.760;2022-08-19T01:44:09;23.78;63.09
67502;SHT30;54349;52.528;19.760;2022-08-19T01:46:46;23.69;61.87
67502;SHT30;54349;52.528;19.760;2022-08-19T01:49:16;23.56;61.89
67502;SHT30;54349;52.528;19.760;2022-08-19T01:51:48;23.47;61.48
67502;SHT30;54349;52.528;19.760;2022-08-19T01:54:18;23.37;61.08
67502;SHT30;54349;52.528;19.760;2022-08-19T01:56:59;23.24;61.01
67502;SHT30;54349;52.528;19.760;2022-08-19T01:59:33;23.21;63.35
67502;SHT30;54349;52.528;19.760;2022-08-19T02:02:04;23.35;64.12
67502;SHT30;54349;52.528;19.760;2022-08-19T02:04:36;23.51;64.17
67502;SHT30;54349;52.528;19.760;2022-08-19T02:07:06;23.67;64.07
67502;SHT30;54349;52.528;19.760;2022-08-19T02:09:35;23.79;63.45
67502;SHT30;54349;52.528;19.760;2022-08-19T02:12:04;23.76;61.91
67502;SHT30;54349;52.528;19.760;2022-08-19T02:14:36;23.69;61.57
67502;SHT30;54349;52.528;19.760;2022-08-19T02:17:04;23.59;61.14
67502;SHT30;54349;52.528;19.760;2022-08-19T02:19:33;23.50;60.67
67502;SHT30;54349;52.528;19.760;2022-08-19T02:22:05;23.42;61.99
67502;SHT30;54349;52.528;19.760;2022-08-19T02:24:33;23.53;63.56
67502;SHT30;54349;52.528;19.760;2022-08-19T02:27:02;23.69;63.53
67502;SHT30;54349;52.528;19.760;2022-08-19T02:29:30;23.82;63.49
67502;SHT30;54349;52.528;19.760;2022-08-19T02:31:58;23.94;62.74
67502;SHT30;54349;52.528;19.760;2022-08-19T02:34:26;23.86;61.25
67502;SHT30;54349;52.528;19.760;2022-08-19T02:36:55;23.72;60.98
67502;SHT30;54349;52.528;19.760;2022-08-19T02:39:29;23.59;60.75
67502;SHT30;54349;52.528;19.760;2022-08-19T02:41:58;23.47;60.43
67502;SHT30;54349;52.528;19.760;2022-08-19T02:44:27;23.35;61.04
67502;SHT30;54349;52.528;19.760;2022-08-19T02:46:58;23.41;63.30
67502;SHT30;54349;52.528;19.760;2022-08-19T02:49:26;23.55;63.60
67502;SHT30;54349;52.528;19.760;2022-08-19T02:51:55;23.69;63.60
67502;SHT30;54349;52.528;19.760;2022-08-19T02:54:23;23.83;63.50
67502;SHT30;54349;52.528;19.760;2022-08-19T02:56:51;23.88;62.23
67502;SHT30;54349;52.528;19.760;2022-08-19T02:59:19;23.79;61.34
67502;SHT30;54349;52.528;19.760;2022-08-19T03:01:49;23.65;61.27
67502;SHT30;54349;52.528;19.760;2022-08-19T03:04:18;23.53;60.86
67502;SHT30;54349;52.528;19.760;2022-08-19T03:06:47;23.40;60.45
67502;SHT30;54349;52.528;19.760;2022-08-19T03:09:17;23.28;60.36
67502;SHT30;54349;52.528;19.760;2022-08-19T03:11:47;23.19;61.84
67502;SHT30;54349;52.528;19.760;2022-08-19T03:14:19;23.29;63.66
67502;SHT30;54349;52.528;19.760;2022-08-19T03:16:48;23.45;63.80
67502;SHT30;54349;52.528;19.760;2022-08-19T03:19:19;23.63;63.78
67502;SHT30;54349;52.528;19.760;2022-08-19T03:21:49;23.81;63.45
67502;SHT30;54349;52.528;19.760;2022-08-19T03:24:19;23.84;61.79
67502;SHT30;54349;52.528;19.760;2022-08-19T03:26:49;23.75;61.33
67502;SHT30;54349;52.528;19.760;2022-08-19T03:29:25;23.66;61.21
67502;SHT30;54349;52.528;19.760;2022-08-19T03:31:59;23.55;60.74
67502;SHT30;54349;52.528;19.760;2022-08-19T03:34:32;23.47;60.65
67502;SHT30;54349;52.528;19.760;2022-08-19T03:37:05;23.46;63.02
67502;SHT30;54349;52.528;19.760;2022-08-19T03:39:38;23.60;63.52
67502;SHT30;54349;52.528;19.760;2022-08-19T03:42:08;23.75;63.56
67502;SHT30;54349;52.528;19.760;2022-08-19T03:44:57;23.90;63.42
67502;SHT30;54349;52.528;19.760;2022-08-19T03:47:25;23.98;62.32
67502;SHT30;54349;52.528;19.760;2022-08-19T03:49:54;23.84;61.16
67502;SHT30;54349;52.528;19.760;2022-08-19T03:52:22;23.71;61.13
67502;SHT30;54349;52.528;19.760;2022-08-19T03:54:50;23.59;60.80
67502;SHT30;54349;52.528;19.760;2022-08-19T03:57:19;23.47;60.48
67502;SHT30;54349;52.528;19.760;2022-08-19T03:59:51;23.43;62.71
67502;SHT30;54349;52.528;19.760;2022-08-19T04:02:19;23.55;63.48
67502;SHT30;54349;52.528;19.760;2022-08-19T04:04:47;23.70;63.56
67502;SHT30;54349;52.528;19.760;2022-08-19T04:07:15;23.81;63.50
67502;SHT30;54349;52.528;19.760;2022-08-19T04:09:45;23.92;62.86
67502;SHT30;54349;52.528;19.760;2022-08-19T04:12:13;23.87;61.34
67502;SHT30;54349;52.528;19.760;2022-08-19T04:14:42;23.72;61.08
67502;SHT30;54349;52.528;19.760;2022-08-19T04:17:10;23.59;60.83
67502;SHT30;54349;52.528;19.760;2022-08-19T04:19:40;23.46;60.48
67502;SHT30;54349;52.528;19.760;2022-08-19T04:22:10;23.33;60.53
67502;SHT30;54349;52.528;19.760;2022-08-19T04:24:39;23.31;62.90
67502;SHT30;54349;52.528;19.760;2022-08-19T04:27:07;23.45;63.71
67502;SHT30;54349;52.528;19.760;2022-08-19T04:29:35;23.59;63.72
67502;SHT30;54349;52.528;19.760;2022-08-19T04:32:06;23.77;63.56
67502;SHT30;54349;52.528;19.760;2022-08-19T04:34:36;23.86;62.24
67502;SHT30;54349;52.528;19.760;2022-08-19T04:37:26;23.78;61.12
67502;SHT30;54349;52.528;19.760;2022-08-19T04:40:02;23.68;60.87
67502;SHT30;54349;52.528;19.760;2022-08-19T04:42:52;23.55;60.46
67502;SHT30;54349;52.528;19.760;2022-08-19T04:45:21;23.45;60.31
67502;SHT30;54349;52.528;19.760;2022-08-19T04:47:54;23.39;61.88
67502;SHT30;54349;52.528;19.760;2022-08-19T04:50:44;23.53;63.55
67502;SHT30;54349;52.528;19.760;2022-08-19T04:53:13;23.69;63.58
67502;SHT30;54349;52.528;19.760;2022-08-19T04:55:42;23.83;63.51
67502;SHT30;54349;52.528;19.760;2022-08-19T04:58:10;23.96;63.11
67502;SHT30;54349;52.528;19.760;2022-08-19T05:00:39;23.93;61.57
67502;SHT30;54349;52.528;19.760;2022-08-19T05:03:07;23.80;61.07
67502;SHT30;54349;52.528;19.760;2022-08-19T05:05:39;23.67;60.89
67502;SHT30;54349;52.528;19.760;2022-08-19T05:08:12;23.55;60.45
67502;SHT30;54349;52.528;19.760;2022-08-19T05:10:58;23.41;60.27
67502;SHT30;54349;52.528;19.760;2022-08-19T05:13:26;23.28;60.25
67502;SHT30;54349;52.528;19.760;2022-08-19T05:15:56;23.22;62.17
67502;SHT30;54349;52.528;19.760;2022-08-19T05:18:26;23.35;63.44
67502;SHT30;54349;52.528;19.760;2022-08-19T05:21:14;23.53;63.66
67502;SHT30;54349;52.528;19.760;2022-08-19T05:24:05;23.70;63.66
67502;SHT30;54349;52.528;19.760;2022-08-19T05:26:38;23.75;62.37
67502;SHT30;54349;52.528;19.760;2022-08-19T05:29:09;23.62;61.73
67502;SHT30;54349;52.528;19.760;2022-08-19T05:31:37;23.50;61.65
67502;SHT30;54349;52.528;19.760;2022-08-19T05:34:08;23.41;61.41
67502;SHT30;54349;52.528;19.760;2022-08-19T05:36:47;23.31;61.18
67502;SHT30;54349;52.528;19.760;2022-08-19T05:39:18;23.26;62.61
67502;SHT30;54349;52.528;19.760;2022-08-19T05:41:50;23.38;64.30
67502;SHT30;54349;52.528;19.760;2022-08-19T05:44:25;23.56;64.26
67502;SHT30;54349;52.528;19.760;2022-08-19T05:47:01;23.76;64.06
67502;SHT30;54349;52.528;19.760;2022-08-19T05:49:32;23.88;63.35
67502;SHT30;54349;52.528;19.760;2022-08-19T05:52:05;23.84;61.91
67502;SHT30;54349;52.528;19.760;2022-08-19T05:54:39;23.77;61.64
67502;SHT30;54349;52.528;19.760;2022-08-19T05:57:09;23.67;61.20
67502;SHT30;54349;52.528;19.760;2022-08-19T05:59:39;23.59;60.86
67502;SHT30;54349;52.528;19.760;2022-08-19T06:02:08;23.49;60.69
67502;SHT30;54349;52.528;19.760;2022-08-19T06:04:36;23.40;60.69
67502;SHT30;54349;52.528;19.760;2022-08-19T06:07:04;23.34;61.86
67502;SHT30;54349;52.528;19.760;2022-08-19T06:09:39;23.44;64.05
67502;SHT30;54349;52.528;19.760;2022-08-19T06:12:28;23.63;64.11
67502;SHT30;54349;52.528;19.760;2022-08-19T06:15:04;23.79;64.03
67502;SHT30;54349;52.528;19.760;2022-08-19T06:17:36;23.94;63.79
67502;SHT30;54349;52.528;19.760;2022-08-19T06:20:06;23.95;62.65
67502;SHT30;54349;52.528;19.760;2022-08-19T06:22:40;23.84;61.87
67502;SHT30;54349;52.528;19.760;2022-08-19T06:25:13;23.72;61.79
67502;SHT30;54349;52.528;19.760;2022-08-19T06:27:42;23.61;61.34
67502;SHT30;54349;52.528;19.760;2022-08-19T06:30:31;23.49;61.07
67502;SHT30;54349;52.528;19.760;2022-08-19T06:33:00;23.38;61.10
67502;SHT30;54349;52.528;19.760;2022-08-19T06:35:28;23.29;61.15
67502;SHT30;54349;52.528;19.760;2022-08-19T06:37:57;23.25;62.95
67502;SHT30;54349;52.528;19.760;2022-08-19T06:40:25;23.38;64.55
67502;SHT30;54349;52.528;19.760;2022-08-19T06:42:55;23.56;64.68
67502;SHT30;54349;52.528;19.760;2022-08-19T06:45:25;23.76;64.56
67502;SHT30;54349;52.528;19.760;2022-08-19T06:48:03;23.93;64.38
67502;SHT30;54349;52.528;19.760;2022-08-19T06:50:31;23.96;63.13
67502;SHT30;54349;52.528;19.760;2022-08-19T06:52:59;23.83;62.54
67502;SHT30;54349;52.528;19.760;2022-08-19T06:55:31;23.74;62.53
67502;SHT30;54349;52.528;19.760;2022-08-19T06:58:03;23.68;61.92
67502;SHT30;54349;52.528;19.760;2022-08-19T07:00:32;23.59;61.53
67502;SHT30;54349;52.528;19.760;2022-08-19T07:03:01;23.51;61.53
67502;SHT30;54349;52.528;19.760;2022-08-19T07:05:41;23.43;61.51
67502;SHT30;54349;52.528;19.760;2022-08-19T07:08:20;23.34;61.44
67502;SHT30;54349;52.528;19.760;2022-08-19T07:10:48;23.26;61.58
67502;SHT30;54349;52.528;19.760;2022-08-19T07:13:16;23.19;61.66
67502;SHT30;54349;52.528;19.760;2022-08-19T07:15:44;23.11;61.59
67502;SHT30;54349;52.528;19.760;2022-08-19T07:18:14;23.02;61.58
67502;SHT30;54349;52.528;19.760;2022-08-19T07:20:43;22.90;61.36
67502;SHT30;54349;52.528;19.760;2022-08-19T07:23:11;22.84;63.43
67502;SHT30;54349;52.528;19.760;2022-08-19T07:25:43;23.00;65.09
67502;SHT30;54349;52.528;19.760;2022-08-19T07:28:19;23.20;65.27
67502;SHT30;54349;52.528;19.760;2022-08-19T07:30:51;23.42;65.18
67502;SHT30;54349;52.528;19.760;2022-08-19T07:33:22;23.60;65.03
67502;SHT30;54349;52.528;19.760;2022-08-19T07:35:54;23.65;64.39
67502;SHT30;54349;52.528;19.760;2022-08-19T07:38:23;23.60;63.62
67502;SHT30;54349;52.528;19.760;2022-08-19T07:40:53;23.50;63.14
67502;SHT30;54349;52.528;19.760;2022-08-19T07:43:21;23.44;62.83
67502;SHT30;54349;52.528;19.760;2022-08-19T07:46:01;23.42;62.41
67502;SHT30;54349;52.528;19.760;2022-08-19T07:48:30;23.40;62.22
67502;SHT30;54349;52.528;19.760;2022-08-19T07:51:02;23.38;62.02
67502;SHT30;54349;52.528;19.760;2022-08-19T07:53:33;23.36;61.90
67502;SHT30;54349;52.528;19.760;2022-08-19T07:56:06;23.32;61.87
67502;SHT30;54349;52.528;19.760;2022-08-19T07:58:36;23.29;61.93
67502;SHT30;54349;52.528;19.760;2022-08-19T08:01:10;23.27;61.85
67502;SHT30;54349;52.528;19.760;2022-08-19T08:03:45;23.25;61.78
67502;SHT30;54349;52.528;19.760;2022-08-19T08:06:44;23.22;61.84
67502;SHT30;54349;52.528;19.760;2022-08-19T08:09:33;23.20;61.85
67502;SHT30;54349;52.528;19.760;2022-08-19T08:12:16;23.19;61.80
67502;SHT30;54349;52.528;19.760;2022-08-19T08:15:06;23.16;61.57
67502;SHT30;54349;52.528;19.760;2022-08-19T08:17:40;23.13;61.61
67502;SHT30;54349;52.528;19.760;2022-08-19T08:20:19;23.11;61.66
67502;SHT30;54349;52.528;19.760;2022-08-19T08:22:48;23.09;61.72
67502;SHT30;54349;52.528;19.760;2022-08-19T08:25:55;23.08;61.62
67502;SHT30;54349;52.528;19.760;2022-08-19T08:28:26;23.07;61.55
67502;SHT30;54349;52.528;19.760;2022-08-19T08:30:57;23.07;61.48
67502;SHT30;54349;52.528;19.760;2022-08-19T08:33:27;23.06;61.42
67502;SHT30;54349;52.528;19.760;2022-08-19T08:36:04;23.06;61.38
67502;SHT30;54349;52.528;19.760;2022-08-19T08:38:32;23.04;61.28
67502;SHT30;54349;52.528;19.760;2022-08-19T08:44:03;22.98;61.34
67502;SHT30;54349;52.528;19.760;2022-08-19T08:46:42;22.96;61.41
67502;SHT30;54349;52.528;19.760;2022-08-19T08:49:31;22.93;61.53
67502;SHT30;54349;52.528;19.760;2022-08-19T08:52:11;22.92;61.66
67502;SHT30;54349;52.528;19.760;2022-08-19T08:55:13;22.88;61.85
67502;SHT30;54349;52.528;19.760;2022-08-19T09:00:25;22.88;61.79
67502;SHT30;54349;52.528;19.760;2022-08-19T09:02:59;22.90;61.91
67502;SHT30;54349;52.528;19.760;2022-08-19T09:09:02;23.00;61.95
67502;SHT30;54349;52.528;19.760;2022-08-19T09:15:05;23.04;61.81
67502;SHT30;54349;52.528;19.760;2022-08-19T09:17:39;23.05;61.74
67502;SHT30;54349;52.528;19.760;2022-08-19T09:22:38;23.07;61.82
67502;SHT30;54349;52.528;19.760;2022-08-19T09:25:14;23.09;61.80
67502;SHT30;54349;52.528;19.760;2022-08-19T09:27:56;23.10;61.80
67502;SHT30;54349;52.528;19.760;2022-08-19T09:30:33;23.10;61.84
67502;SHT30;54349;52.528;19.760;2022-08-19T09:33:08;23.12;61.96
67502;SHT30;54349;52.528;19.760;2022-08-19T09:35:37;23.16;61.98
67502;SHT30;54349;52.528;19.760;2022-08-19T09:38:20;23.20;61.98
67502;SHT30;54349;52.528;19.760;2022-08-19T09:40:49;23.22;61.90
67502;SHT30;54349;52.528;19.760;2022-08-19T09:43:18;23.24;61.83
67502;SHT30;54349;52.528;19.760;2022-08-19T09:46:07;23.26;61.67
67502;SHT30;54349;52.528;19.760;2022-08-19T09:48:37;23.25;61.51
67502;SHT30;54349;52.528;19.760;2022-08-19T09:51:13;23.26;61.33
67502;SHT30;54349;52.528;19.760;2022-08-19T09:53:48;23.26;61.22
67502;SHT30;54349;52.528;19.760;2022-08-19T09:56:20;23.26;61.21
67502;SHT30;54349;52.528;19.760;2022-08-19T09:58:50;23.28;61.17
67502;SHT30;54349;52.528;19.760;2022-08-19T10:01:21;23.29;61.15
67502;SHT30;54349;52.528;19.760;2022-08-19T10:03:54;23.30;61.04
67502;SHT30;54349;52.528;19.760;2022-08-19T10:06:27;23.31;61.19
67502;SHT30;54349;52.528;19.760;2022-08-19T10:09:14;23.29;60.99
67502;SHT30;54349;52.528;19.760;2022-08-19T10:12:02;23.27;61.16
67502;SHT30;54349;52.528;19.760;2022-08-19T10:14:33;23.27;61.26
67502;SHT30;54349;52.528;19.760;2022-08-19T10:17:02;23.29;61.28
67502;SHT30;54349;52.528;19.760;2022-08-19T10:19:46;23.29;60.67
67502;SHT30;54349;52.528;19.760;2022-08-19T10:22:22;23.26;59.83
67502;SHT30;54349;52.528;19.760;2022-08-19T10:24:53;23.20;59.61
67502;SHT30;54349;52.528;19.760;2022-08-19T10:27:22;23.12;59.72
67502;SHT30;54349;52.528;19.760;2022-08-19T10:29:53;23.07;59.71
67502;SHT30;54349;52.528;19.760;2022-08-19T10:32:21;22.97;59.76
67502;SHT30;54349;52.528;19.760;2022-08-19T10:35:02;22.86;59.99
67502;SHT30;54349;52.528;19.760;2022-08-19T10:37:36;22.75;60.34
67502;SHT30;54349;52.528;19.760;2022-08-19T10:40:24;22.69;60.39
67502;SHT30;54349;52.528;19.760;2022-08-19T10:42:55;22.65;60.76
67502;SHT30;54349;52.528;19.760;2022-08-19T10:45:24;22.63;60.99
67502;SHT30;54349;52.528;19.760;2022-08-19T10:47:55;22.62;61.16
67502;SHT30;54349;52.528;19.760;2022-08-19T10:50:25;22.63;61.43
67502;SHT30;54349;52.528;19.760;2022-08-19T10:53:12;22.66;61.52
67502;SHT30;54349;52.528;19.760;2022-08-19T10:55:40;22.68;61.68
67502;SHT30;54349;52.528;19.760;2022-08-19T10:58:27;22.70;61.80
67502;SHT30;54349;52.528;19.760;2022-08-19T11:00:56;22.74;61.95
67502;SHT30;54349;52.528;19.760;2022-08-19T11:03:26;22.80;61.88
67502;SHT30;54349;52.528;19.760;2022-08-19T11:05:59;22.87;61.82
67502;SHT30;54349;52.528;19.760;2022-08-19T11:08:33;22.92;61.67
67502;SHT30;54349;52.528;19.760;2022-08-19T11:11:06;22.99;61.46
67502;SHT30;54349;52.528;19.760;2022-08-19T11:13:37;23.02;61.35
67502;SHT30;54349;52.528;19.760;2022-08-19T11:16:11;23.05;61.33
67502;SHT30;54349;52.528;19.760;2022-08-19T11:18:45;23.06;61.31
67502;SHT30;54349;52.528;19.760;2022-08-19T11:21:18;23.08;61.23
67502;SHT30;54349;52.528;19.760;2022-08-19T11:24:03;23.09;61.30
67502;SHT30;54349;52.528;19.760;2022-08-19T11:26:37;23.10;61.26
67502;SHT30;54349;52.528;19.760;2022-08-19T11:29:08;23.10;61.32
67502;SHT30;54349;52.528;19.760;2022-08-19T11:31:41;23.10;61.45
67502;SHT30;54349;52.528;19.760;2022-08-19T11:34:15;23.11;61.50
67502;SHT30;54349;52.528;19.760;2022-08-19T11:36:48;23.11;61.38
67502;SHT30;54349;52.528;19.760;2022-08-19T11:39:20;23.11;61.39
67502;SHT30;54349;52.528;19.760;2022-08-19T11:41:50;23.11;61.33
67502;SHT30;54349;52.528;19.760;2022-08-19T11:44:20;23.11;61.29
67502;SHT30;54349;52.528;19.760;2022-08-19T11:46:49;23.11;61.35
67502;SHT30;54349;52.528;19.760;2022-08-19T11:49:18;23.11;61.40
67502;SHT30;54349;52.528;19.760;2022-08-19T11:51:47;23.12;61.24
67502;SHT30;54349;52.528;19.760;2022-08-19T11:54:20;23.12;61.30
67502;SHT30;54349;52.528;19.760;2022-08-19T11:56:48;23.11;61.32
67502;SHT30;54349;52.528;19.760;2022-08-19T11:59:17;23.12;61.31
67502;SHT30;54349;52.528;19.760;2022-08-19T12:01:45;23.12;61.30
67502;SHT30;54349;52.528;19.760;2022-08-19T12:04:14;23.13;61.28
67502;SHT30;54349;52.528;19.760;2022-08-19T12:06:45;23.14;61.37
67502;SHT30;54349;52.528;19.760;2022-08-19T12:09:13;23.15;61.31
67502;SHT30;54349;52.528;19.760;2022-08-19T12:11:43;23.18;61.32
67502;SHT30;54349;52.528;19.760;2022-08-19T12:14:13;23.17;61.10
67502;SHT30;54349;52.528;19.760;2022-08-19T12:16:43;23.19;61.17
67502;SHT30;54349;52.528;19.760;2022-08-19T12:19:19;23.19;61.15
67502;SHT30;54349;52.528;19.760;2022-08-19T12:21:49;23.19;61.11
67502;SHT30;54349;52.528;19.760;2022-08-19T12:24:18;23.19;61.20
67502;SHT30;54349;52.528;19.760;2022-08-19T12:26:51;23.20;61.27
67502;SHT30;54349;52.528;19.760;2022-08-19T12:29:21;23.21;61.33
67502;SHT30;54349;52.528;19.760;2022-08-19T12:31:51;23.22;61.25
67502;SHT30;54349;52.528;19.760;2022-08-19T12:34:19;23.23;61.33
67502;SHT30;54349;52.528;19.760;2022-08-19T12:36:48;23.24;61.34
67502;SHT30;54349;52.528;19.760;2022-08-19T12:39:17;23.25;61.31
67502;SHT30;54349;52.528;19.760;2022-08-19T12:41:45;23.25;61.25
67502;SHT30;54349;52.528;19.760;2022-08-19T12:44:21;23.25;61.32
67502;SHT30;54349;52.528;19.760;2022-08-19T12:46:56;23.30;61.01
67502;SHT30;54349;52.528;19.760;2022-08-19T12:49:27;23.37;60.23
67502;SHT30;54349;52.528;19.760;2022-08-19T12:52:17;23.44;59.44
67502;SHT30;54349;52.528;19.760;2022-08-19T12:54:51;23.49;58.84
67502;SHT30;54349;52.528;19.760;2022-08-19T12:57:25;23.50;58.07
67502;SHT30;54349;52.528;19.760;2022-08-19T13:02:43;23.50;57.03
67502;SHT30;54349;52.528;19.760;2022-08-19T13:05:14;23.51;56.66
67502;SHT30;54349;52.528;19.760;2022-08-19T13:07:49;23.48;56.38
67502;SHT30;54349;52.528;19.760;2022-08-19T13:10:21;23.46;56.19
67502;SHT30;54349;52.528;19.760;2022-08-19T13:12:53;23.45;55.97
67502;SHT30;54349;52.528;19.760;2022-08-19T13:15:23;23.43;56.45
67502;SHT30;54349;52.528;19.760;2022-08-19T13:17:52;23.53;56.59
67502;SHT30;54349;52.528;19.760;2022-08-19T13:20:24;23.72;56.60
67502;SHT30;54349;52.528;19.760;2022-08-19T13:22:54;23.90;56.62
67502;SHT30;54349;52.528;19.760;2022-08-19T13:25:25;24.08;58.09
67502;SHT30;54349;52.528;19.760;2022-08-19T13:27:54;24.17;58.98
67502;SHT30;54349;52.528;19.760;2022-08-19T13:30:23;24.17;58.88
67502;SHT30;54349;52.528;19.760;2022-08-19T13:33:11;24.15;58.17
67502;SHT30;54349;52.528;19.760;2022-08-19T13:38:20;24.06;56.81
67502;SHT30;54349;52.528;19.760;2022-08-19T13:40:51;23.99;56.38
67502;SHT30;54349;52.528;19.760;2022-08-19T13:43:24;23.92;55.99
67502;SHT30;54349;52.528;19.760;2022-08-19T13:45:56;23.84;55.70
67502;SHT30;54349;52.528;19.760;2022-08-19T13:48:25;23.76;55.51
67502;SHT30;54349;52.528;19.760;2022-08-19T13:50:55;23.69;55.33
67502;SHT30;54349;52.528;19.760;2022-08-19T13:53:23;23.63;55.16
67502;SHT30;54349;52.528;19.760;2022-08-19T13:55:52;23.58;55.59
67502;SHT30;54349;52.528;19.760;2022-08-19T13:58:22;23.63;55.83
67502;SHT30;54349;52.528;19.760;2022-08-19T14:00:51;23.78;55.95
67502;SHT30;54349;52.528;19.760;2022-08-19T14:03:20;23.94;55.96
67502;SHT30;54349;52.528;19.760;2022-08-19T14:05:48;24.10;57.09
67502;SHT30;54349;52.528;19.760;2022-08-19T14:08:17;24.16;58.08
67502;SHT30;54349;52.528;19.760;2022-08-19T14:10:46;24.17;58.14
67502;SHT30;54349;52.528;19.760;2022-08-19T14:13:19;24.13;57.63
67502;SHT30;54349;52.528;19.760;2022-08-19T14:15:50;24.09;56.86
67502;SHT30;54349;52.528;19.760;2022-08-19T14:18:20;24.03;56.20
67502;SHT30;54349;52.528;19.760;2022-08-19T14:20:48;23.96;55.82
67502;SHT30;54349;52.528;19.760;2022-08-19T14:23:17;23.89;55.45
67502;SHT30;54349;52.528;19.760;2022-08-19T14:25:46;23.82;55.21
67502;SHT30;54349;52.528;19.760;2022-08-19T14:28:14;23.75;55.03
67502;SHT30;54349;52.528;19.760;2022-08-19T14:30:44;23.69;55.40
67502;SHT30;54349;52.528;19.760;2022-08-19T14:33:12;23.71;55.71
67502;SHT30;54349;52.528;19.760;2022-08-19T14:35:42;23.85;55.80
67502;SHT30;54349;52.528;19.760;2022-08-19T14:38:16;24.02;55.84
67502;SHT30;54349;52.528;19.760;2022-08-19T14:41:05;24.17;57.29
67502;SHT30;54349;52.528;19.760;2022-08-19T14:43:40;24.22;58.03
67502;SHT30;54349;52.528;19.760;2022-08-19T14:46:10;24.22;57.96
67502;SHT30;54349;52.528;19.760;2022-08-19T14:48:43;24.19;57.37
67502;SHT30;54349;52.528;19.760;2022-08-19T14:51:16;24.14;56.54
67502;SHT30;54349;52.528;19.760;2022-08-19T14:53:47;24.09;55.90
67502;SHT30;54349;52.528;19.760;2022-08-19T14:56:18;24.01;55.46
67502;SHT30;54349;52.528;19.760;2022-08-19T14:58:52;23.93;55.14
67502;SHT30;54349;52.528;19.760;2022-08-19T15:01:22;23.86;54.89
67502;SHT30;54349;52.528;19.760;2022-08-19T15:03:52;23.78;55.00
67502;SHT30;54349;52.528;19.760;2022-08-19T15:06:22;23.76;55.61
67502;SHT30;54349;52.528;19.760;2022-08-19T15:08:53;23.86;55.75
67502;SHT30;54349;52.528;19.760;2022-08-19T15:11:30;24.02;55.74
67502;SHT30;54349;52.528;19.760;2022-08-19T15:14:00;24.17;56.79
67502;SHT30;54349;52.528;19.760;2022-08-19T15:16:29;24.24;57.71
67502;SHT30;54349;52.528;19.760;2022-08-19T15:18:58;24.23;57.70
67502;SHT30;54349;52.528;19.760;2022-08-19T15:21:28;24.19;57.17
67502;SHT30;54349;52.528;19.760;2022-08-19T15:23:58;24.15;56.45
67502;SHT30;54349;52.528;19.760;2022-08-19T15:26:28;24.08;55.84
67502;SHT30;54349;52.528;19.760;2022-08-19T15:29:00;24.01;55.43
67502;SHT30;54349;52.528;19.760;2022-08-19T15:31:31;23.93;55.15
67502;SHT30;54349;52.528;19.760;2022-08-19T15:34:05;23.84;54.86
67502;SHT30;54349;52.528;19.760;2022-08-19T15:36:35;23.77;55.24
67502;SHT30;54349;52.528;19.760;2022-08-19T15:39:04;23.80;55.56
67502;SHT30;54349;52.528;19.760;2022-08-19T15:41:34;23.92;55.77
67502;SHT30;54349;52.528;19.760;2022-08-19T15:44:09;24.07;55.73
67502;SHT30;54349;52.528;19.760;2022-08-19T15:46:42;24.20;56.96
67502;SHT30;54349;52.528;19.760;2022-08-19T15:49:15;24.25;57.63
67502;SHT30;54349;52.528;19.760;2022-08-19T15:51:46;24.24;57.49
67502;SHT30;54349;52.528;19.760;2022-08-19T15:54:17;24.21;56.87
67502;SHT30;54349;52.528;19.760;2022-08-19T15:56:49;24.15;56.02
67502;SHT30;54349;52.528;19.760;2022-08-19T15:59:37;24.07;55.31
67502;SHT30;54349;52.528;19.760;2022-08-19T16:02:31;23.96;54.86
67502;SHT30;54349;52.528;19.760;2022-08-19T16:05:21;23.86;54.66
67502;SHT30;54349;52.528;19.760;2022-08-19T16:08:13;23.83;55.25